Time;durP1;ratioP1;P1;durP2;ratioP2;P2;SDS_P1;SDS_P2;PMS_P1;PMS_P2;Temp;Humidity;BMP_temperature;BMP_pressure;BME280_temperature;BME280_humidity;BME280_pressure;Samples;Min_cycle;Max_cycle;Signal;HPM_P1;HPM_P2
2021/04/07 00:00:47;;;;;;;24.57;17.27;;;-0.20;99.90;;;;;;5089314;28;20468;-71
2021/04/07 00:03:15;;;;;;;21.00;17.20;;;-0.30;99.90;;;;;;5092755;28;20549;-71
2021/04/07 00:05:44;;;;;;;23.10;16.17;;;-0.30;99.90;;;;;;5085424;28;20472;-70
2021/04/07 00:08:14;;;;;;;17.60;15.77;;;-0.40;99.90;;;;;;5097164;28;21000;-72
2021/04/07 00:10:43;;;;;;;24.03;17.57;;;-0.40;99.90;;;;;;5083973;28;20980;-71
2021/04/07 00:13:10;;;;;;;17.20;15.40;;;-0.30;99.90;;;;;;5084820;28;20550;-71
2021/04/07 00:15:38;;;;;;;21.93;16.80;;;-0.40;99.90;;;;;;5086522;28;20475;-71
2021/04/07 00:18:07;;;;;;;17.53;15.20;;;-0.40;99.90;;;;;;5097980;28;20742;-70
2021/04/07 00:20:34;;;;;;;20.03;16.00;;;-0.40;99.90;;;;;;5096987;28;20462;-71
2021/04/07 00:23:01;;;;;;;14.57;13.27;;;-0.50;99.90;;;;;;5096536;28;20490;-70
2021/04/07 00:25:29;;;;;;;20.67;15.47;;;-0.60;99.90;;;;;;5087209;28;20458;-72
2021/04/07 00:27:56;;;;;;;18.00;15.10;;;-0.60;99.90;;;;;;5081335;28;20481;-71
2021/04/07 00:30:25;;;;;;;15.07;13.83;;;-0.60;99.90;;;;;;5093512;28;20468;-73
2021/04/07 00:32:52;;;;;;;16.23;14.53;;;-0.70;99.90;;;;;;5096186;28;20487;-71
2021/04/07 00:35:21;;;;;;;19.97;14.67;;;-0.70;99.90;;;;;;5094217;28;20460;-73
2021/04/07 00:37:48;;;;;;;15.73;13.27;;;-0.60;99.90;;;;;;5094332;28;20548;-72
2021/04/07 00:40:16;;;;;;;15.13;13.60;;;-0.60;99.90;;;;;;5086529;28;20473;-73
2021/04/07 00:42:44;;;;;;;13.90;12.77;;;-0.70;99.90;;;;;;5088036;28;20537;-70
2021/04/07 00:45:12;;;;;;;14.77;13.27;;;-0.70;99.90;;;;;;5095896;28;20466;-73
2021/04/07 00:47:39;;;;;;;16.70;12.97;;;-0.60;99.90;;;;;;5099056;28;20458;-71
2021/04/07 00:50:08;;;;;;;15.57;13.97;;;-0.60;99.90;;;;;;5081791;28;20476;-72
2021/04/07 00:52:35;;;;;;;14.20;13.00;;;-0.60;99.90;;;;;;5091679;28;20520;-73
2021/04/07 00:55:02;;;;;;;13.80;12.40;;;-0.50;99.90;;;;;;5092231;28;20602;-71
2021/04/07 00:57:28;;;;;;;13.37;12.37;;;-0.50;99.90;;;;;;5085328;28;20828;-71
2021/04/07 00:59:55;;;;;;;15.20;12.80;;;-0.50;99.90;;;;;;5098484;28;20523;-73
2021/04/07 01:02:22;;;;;;;14.40;13.20;;;-0.50;99.90;;;;;;5102655;28;20468;-71
2021/04/07 01:04:50;;;;;;;18.30;12.60;;;-0.50;99.90;;;;;;5086050;28;20504;-72
2021/04/07 01:07:17;;;;;;;14.93;11.93;;;-0.40;99.90;;;;;;5088758;28;20462;-73
2021/04/07 01:09:46;;;;;;;14.90;13.33;;;-0.40;99.90;;;;;;5098886;28;20468;-71
2021/04/07 01:12:14;;;;;;;13.53;12.10;;;-0.40;99.90;;;;;;5086888;28;20463;-73
2021/04/07 01:14:41;;;;;;;13.57;12.33;;;-0.30;99.90;;;;;;5094387;28;20479;-71
2021/04/07 01:17:09;;;;;;;14.37;13.20;;;-0.30;99.90;;;;;;5090079;28;20822;-71
2021/04/07 01:19:36;;;;;;;13.17;11.87;;;-0.30;99.90;;;;;;5092986;28;20460;-71
2021/04/07 01:22:03;;;;;;;14.60;12.67;;;-0.20;99.90;;;;;;5088429;28;20511;-72
2021/04/07 01:24:32;;;;;;;13.73;12.30;;;-0.20;99.90;;;;;;5083475;28;20557;-73
2021/04/07 01:26:59;;;;;;;13.93;12.77;;;-0.30;99.90;;;;;;5097317;28;20458;-71
2021/04/07 01:29:26;;;;;;;12.27;11.17;;;-0.30;99.90;;;;;;5093841;28;20476;-71
2021/04/07 01:31:55;;;;;;;13.10;11.40;;;-0.30;99.90;;;;;;5092034;28;20492;-71
2021/04/07 01:34:24;;;;;;;13.67;12.37;;;-0.30;99.90;;;;;;5096641;28;20981;-73
2021/04/07 01:36:51;;;;;;;14.17;12.90;;;-0.30;99.90;;;;;;5088486;28;20461;-73
2021/04/07 01:39:19;;;;;;;13.33;12.27;;;-0.30;99.90;;;;;;5085842;28;20462;-73
2021/04/07 01:41:47;;;;;;;14.57;13.33;;;-0.30;99.90;;;;;;5097042;28;20463;-72
2021/04/07 01:44:14;;;;;;;13.63;12.33;;;-0.20;99.90;;;;;;5094999;28;20480;-71
2021/04/07 01:46:42;;;;;;;13.10;12.07;;;-0.20;99.90;;;;;;5090640;28;20919;-73
2021/04/07 01:49:10;;;;;;;14.17;13.00;;;-0.20;99.90;;;;;;5089500;28;20466;-72
2021/04/07 01:51:37;;;;;;;12.60;11.60;;;-0.20;99.90;;;;;;5090363;28;20829;-71
2021/04/07 01:54:05;;;;;;;15.23;13.80;;;-0.20;99.90;;;;;;5098234;28;20472;-73
2021/04/07 01:56:32;;;;;;;13.27;12.27;;;-0.10;99.90;;;;;;5096543;28;20501;-70
2021/04/07 01:59:01;;;;;;;17.53;13.57;;;-0.10;99.90;;;;;;5094852;28;20464;-73
2021/04/07 02:01:28;;;;;;;16.50;14.50;;;-0.10;99.90;;;;;;5099610;28;20474;-73
2021/04/07 02:03:55;;;;;;;13.60;12.60;;;0.00;99.90;;;;;;5091247;28;20494;-72
2021/04/07 02:06:22;;;;;;;15.03;13.73;;;0.10;99.90;;;;;;5101500;28;20455;-72
2021/04/07 02:08:48;;;;;;;15.77;14.17;;;0.10;99.90;;;;;;5086506;28;20810;-73
2021/04/07 02:11:16;;;;;;;15.73;12.80;;;0.10;99.90;;;;;;5097613;28;20464;-72
2021/04/07 02:13:42;;;;;;;19.40;14.07;;;0.20;99.90;;;;;;5105270;28;20471;-72
2021/04/07 02:16:14;;;;;;;15.27;13.53;;;0.20;99.90;;;;;;5087086;28;20518;-74
2021/04/07 02:18:42;;;;;;;16.13;14.53;;;0.20;99.90;;;;;;5097763;28;20492;-73
2021/04/07 02:21:09;;;;;;;19.60;13.57;;;0.20;99.90;;;;;;5090475;28;20460;-72
2021/04/07 02:23:36;;;;;;;17.60;14.47;;;0.10;99.90;;;;;;5086193;28;20987;-70
2021/04/07 02:26:03;;;;;;;18.67;15.90;;;0.10;99.90;;;;;;5098105;28;20598;-73
2021/04/07 02:28:30;;;;;;;14.43;13.03;;;0.10;99.90;;;;;;5096178;28;20475;-72
2021/04/07 02:30:56;;;;;;;14.63;12.90;;;0.10;99.90;;;;;;5095046;28;20519;-70
2021/04/07 02:33:24;;;;;;;19.07;15.57;;;0.10;99.90;;;;;;5087652;28;20480;-72
2021/04/07 02:35:51;;;;;;;17.60;15.70;;;0.00;99.90;;;;;;5096953;28;20466;-71
2021/04/07 02:38:17;;;;;;;17.83;16.00;;;0.00;99.90;;;;;;5086714;28;20458;-73
2021/04/07 02:40:43;;;;;;;17.20;15.37;;;0.00;99.90;;;;;;5091976;28;20468;-72
2021/04/07 02:43:10;;;;;;;14.53;13.40;;;0.00;99.90;;;;;;5097010;28;20479;-73
2021/04/07 02:45:36;;;;;;;17.73;15.67;;;0.00;99.90;;;;;;5095933;28;20460;-73
2021/04/07 02:48:03;;;;;;;14.97;13.57;;;0.00;99.90;;;;;;5087282;28;20990;-73
2021/04/07 02:50:30;;;;;;;19.60;17.60;;;0.00;99.90;;;;;;5095956;28;20471;-71
2021/04/07 02:52:57;;;;;;;21.57;16.67;;;0.10;99.90;;;;;;5096017;28;20458;-71
2021/04/07 02:55:24;;;;;;;18.90;16.13;;;0.10;99.90;;;;;;5097379;28;20892;-72
2021/04/07 02:57:51;;;;;;;20.10;17.07;;;0.10;99.90;;;;;;5088437;28;20458;-73
2021/04/07 03:00:18;;;;;;;19.40;17.40;;;0.10;99.90;;;;;;5084971;28;20464;-71
2021/04/07 03:02:45;;;;;;;16.53;14.83;;;0.10;99.90;;;;;;5088185;28;20948;-71
2021/04/07 03:05:12;;;;;;;23.27;20.17;;;0.10;99.90;;;;;;5093709;28;20493;-72
2021/04/07 03:07:42;;;;;;;20.53;18.43;;;0.20;99.90;;;;;;5088247;28;20555;-72
2021/04/07 03:10:10;;;;;;;20.60;17.70;;;0.30;99.90;;;;;;5099081;28;20548;-70
2021/04/07 03:12:36;;;;;;;20.83;18.70;;;0.30;99.90;;;;;;5094420;28;20458;-72
2021/04/07 03:15:04;;;;;;;22.90;18.47;;;0.30;99.90;;;;;;5090820;28;20546;-72
2021/04/07 03:17:30;;;;;;;17.70;16.10;;;0.30;99.90;;;;;;5092713;28;20510;-73
2021/04/07 03:19:56;;;;;;;23.23;18.27;;;0.30;99.90;;;;;;5085700;28;20504;-71
2021/04/07 03:22:23;;;;;;;29.83;19.67;;;0.20;99.90;;;;;;5096823;28;20463;-71
2021/04/07 03:24:51;;;;;;;17.17;15.40;;;0.30;99.90;;;;;;5096112;28;20845;-73
2021/04/07 03:27:17;;;;;;;20.17;18.17;;;0.30;99.90;;;;;;5090114;28;20857;-73
2021/04/07 03:29:45;;;;;;;18.60;16.90;;;0.30;99.90;;;;;;5098435;28;20458;-72
2021/04/07 03:32:12;;;;;;;23.00;18.17;;;0.30;99.90;;;;;;5086184;28;20526;-71
2021/04/07 03:34:38;;;;;;;20.73;17.63;;;0.30;99.90;;;;;;5097163;28;20527;-72
2021/04/07 03:37:05;;;;;;;19.60;17.60;;;0.30;99.90;;;;;;5090559;28;20457;-73
2021/04/07 03:39:31;;;;;;;19.50;17.30;;;0.30;99.90;;;;;;5094033;28;20473;-70
2021/04/07 03:41:59;;;;;;;19.33;17.10;;;0.30;99.90;;;;;;5088351;28;20457;-71
2021/04/07 03:44:25;;;;;;;22.23;20.07;;;0.30;99.90;;;;;;5096355;28;20564;-71
2021/04/07 03:46:53;;;;;;;22.30;19.97;;;0.30;99.90;;;;;;5083399;28;20481;-72
2021/04/07 03:49:19;;;;;;;22.40;20.07;;;0.30;99.90;;;;;;5090257;28;20452;-71
2021/04/07 03:51:46;;;;;;;21.40;17.30;;;0.20;99.90;;;;;;5095333;28;20496;-73
2021/04/07 03:54:12;;;;;;;20.33;18.03;;;0.20;99.90;;;;;;5093227;28;20879;-71
2021/04/07 03:56:39;;;;;;;17.30;15.73;;;0.20;99.90;;;;;;5090258;28;20468;-70
2021/04/07 03:59:06;;;;;;;19.83;16.40;;;0.20;99.90;;;;;;5090657;28;20457;-73
2021/04/07 04:01:33;;;;;;;19.37;17.37;;;0.20;99.90;;;;;;5085016;28;20453;-71
2021/04/07 04:04:00;;;;;;;18.73;17.13;;;0.20;99.90;;;;;;5095992;28;20865;-71
2021/04/07 04:06:27;;;;;;;21.90;17.57;;;0.20;99.90;;;;;;5090451;28;20450;-71
2021/04/07 04:08:53;;;;;;;19.53;17.33;;;0.20;99.90;;;;;;5087592;28;20461;-72
2021/04/07 04:11:20;;;;;;;16.70;15.40;;;0.20;99.90;;;;;;5097054;28;20551;-73
2021/04/07 04:13:46;;;;;;;20.63;18.77;;;0.20;99.90;;;;;;5080863;28;20823;-73
2021/04/07 04:16:13;;;;;;;19.67;17.63;;;0.20;99.90;;;;;;5090913;28;20818;-73
2021/04/07 04:18:40;;;;;;;23.23;18.60;;;0.20;99.90;;;;;;5098843;28;20464;-73
2021/04/07 04:21:07;;;;;;;18.00;16.50;;;0.20;99.90;;;;;;5095886;28;20472;-72
2021/04/07 04:23:33;;;;;;;22.40;17.50;;;0.20;99.90;;;;;;5096467;28;20987;-72
2021/04/07 04:26:00;;;;;;;25.60;20.63;;;0.30;99.90;;;;;;5087675;28;20466;-73
2021/04/07 04:28:26;;;;;;;22.43;20.10;;;0.30;99.90;;;;;;5091009;28;20477;-73
2021/04/07 04:30:52;;;;;;;32.33;23.40;;;0.30;99.90;;;;;;5090775;28;20466;-71
2021/04/07 04:33:20;;;;;;;20.97;18.83;;;0.30;99.90;;;;;;5096129;28;20849;-72
2021/04/07 04:35:46;;;;;;;26.70;19.07;;;0.30;99.90;;;;;;5102294;28;20459;-72
2021/04/07 04:38:16;;;;;;;27.07;22.63;;;0.40;99.90;;;;;;5087924;28;20467;-72
2021/04/07 04:40:43;;;;;;;24.00;20.07;;;0.30;99.90;;;;;;5091345;28;20452;-72
2021/04/07 04:43:10;;;;;;;24.50;22.07;;;0.40;99.90;;;;;;5082902;28;20467;-72
2021/04/07 04:45:36;;;;;;;20.87;18.87;;;0.40;99.90;;;;;;5092699;28;21151;-71
2021/04/07 04:48:04;;;;;;;20.97;18.73;;;0.30;99.90;;;;;;5096367;28;20497;-72
2021/04/07 04:50:31;;;;;;;20.30;18.40;;;0.40;99.90;;;;;;5094579;28;20500;-73
2021/04/07 04:52:58;;;;;;;23.50;21.10;;;0.30;99.90;;;;;;5091509;28;20785;-72
2021/04/07 04:55:24;;;;;;;21.00;19.10;;;0.40;99.90;;;;;;5093520;28;20473;-71
2021/04/07 04:57:51;;;;;;;24.87;21.07;;;0.30;99.90;;;;;;5085595;28;20465;-71
2021/04/07 05:00:18;;;;;;;21.43;18.97;;;0.40;99.90;;;;;;5094157;28;20461;-71
2021/04/07 05:02:44;;;;;;;18.63;17.07;;;0.40;99.90;;;;;;5097031;28;20455;-73
2021/04/07 05:05:12;;;;;;;29.60;19.90;;;0.40;99.90;;;;;;5084204;28;20492;-71
2021/04/07 05:07:40;;;;;;;25.37;21.70;;;0.40;99.90;;;;;;5091249;28;20469;-73
2021/04/07 05:10:07;;;;;;;27.60;25.00;;;0.50;99.90;;;;;;5081809;28;20544;-73
2021/04/07 05:12:34;;;;;;;23.03;20.90;;;0.60;99.90;;;;;;5090919;28;20462;-71
2021/04/07 05:15:01;;;;;;;29.10;21.37;;;0.60;99.90;;;;;;5086212;28;21012;-71
2021/04/07 05:17:28;;;;;;;36.37;33.10;;;0.60;99.90;;;;;;5091092;28;20464;-73
2021/04/07 05:19:54;;;;;;;25.13;22.60;;;0.60;99.90;;;;;;5092248;28;20940;-71
2021/04/07 05:22:21;;;;;;;27.67;25.00;;;0.60;99.90;;;;;;5086348;28;20507;-72
2021/04/07 05:24:49;;;;;;;27.77;25.27;;;0.60;99.90;;;;;;5096158;28;20908;-71
2021/04/07 05:27:16;;;;;;;25.60;23.50;;;0.60;99.90;;;;;;5090539;28;20462;-71
2021/04/07 05:29:43;;;;;;;25.57;23.47;;;0.60;99.90;;;;;;5092396;28;20465;-70
2021/04/07 05:32:09;;;;;;;27.30;25.00;;;0.60;99.90;;;;;;5102380;28;20488;-71
2021/04/07 05:34:36;;;;;;;26.43;24.33;;;0.60;99.90;;;;;;5098940;28;20472;-70
2021/04/07 05:37:02;;;;;;;26.80;24.23;;;0.60;99.90;;;;;;5093091;28;20470;-71
2021/04/07 05:39:29;;;;;;;29.93;26.93;;;0.60;99.90;;;;;;5094106;28;20470;-71
2021/04/07 05:41:56;;;;;;;31.43;28.60;;;0.50;99.90;;;;;;5099032;28;20467;-70
2021/04/07 05:44:22;;;;;;;27.20;24.93;;;0.50;99.90;;;;;;5096394;28;20844;-70
2021/04/07 05:46:49;;;;;;;29.70;26.07;;;0.50;99.90;;;;;;5092954;28;20470;-70
2021/04/07 05:49:15;;;;;;;30.83;26.03;;;0.50;99.90;;;;;;5096254;28;20474;-70
2021/04/07 05:51:42;;;;;;;29.77;27.07;;;0.50;99.90;;;;;;5094139;28;20471;-70
2021/04/07 05:54:08;;;;;;;29.17;26.07;;;0.50;99.90;;;;;;5100570;28;20821;-71
2021/04/07 05:56:36;;;;;;;29.27;25.73;;;0.50;99.90;;;;;;5099180;28;20527;-71
2021/04/07 05:59:03;;;;;;;31.77;27.50;;;0.50;99.90;;;;;;5096782;28;20821;-71
2021/04/07 06:01:29;;;;;;;34.60;29.67;;;0.50;99.90;;;;;;5094732;28;20506;-71
2021/04/07 06:03:55;;;;;;;34.63;29.53;;;0.50;99.90;;;;;;5083484;28;21083;-70
2021/04/07 06:06:22;;;;;;;33.77;30.13;;;0.50;99.90;;;;;;5092054;28;20514;-71
2021/04/07 06:08:50;;;;;;;30.73;27.90;;;0.60;99.90;;;;;;5099118;28;20466;-71
2021/04/07 06:11:17;;;;;;;31.20;28.10;;;0.50;99.90;;;;;;5091530;28;20516;-71
2021/04/07 06:13:44;;;;;;;28.80;25.37;;;0.50;99.90;;;;;;5088296;28;20960;-71
2021/04/07 06:16:12;;;;;;;32.83;29.90;;;0.40;99.90;;;;;;5091197;28;20975;-71
2021/04/07 06:18:38;;;;;;;27.17;24.77;;;0.40;99.90;;;;;;5080620;28;20462;-71
2021/04/07 06:21:05;;;;;;;30.97;27.20;;;0.40;99.90;;;;;;5087324;28;21192;-71
2021/04/07 06:23:31;;;;;;;29.87;27.07;;;0.50;99.90;;;;;;5083032;28;20462;-72
2021/04/07 06:25:58;;;;;;;24.80;22.77;;;0.50;99.90;;;;;;5087646;28;20499;-71
2021/04/07 06:28:25;;;;;;;25.83;23.43;;;0.50;99.90;;;;;;5090970;28;20840;-71
2021/04/07 06:30:54;;;;;;;38.63;26.43;;;0.50;99.90;;;;;;5083765;28;20544;-71
2021/04/07 06:33:22;;;;;;;28.20;25.70;;;0.60;99.90;;;;;;5089509;28;20500;-72
2021/04/07 06:35:50;;;;;;;30.23;27.23;;;0.60;99.90;;;;;;5089482;28;20462;-72
2021/04/07 06:38:18;;;;;;;26.30;24.07;;;0.50;99.90;;;;;;5092940;28;20476;-72
2021/04/07 06:40:45;;;;;;;27.27;25.07;;;0.50;99.90;;;;;;5088343;28;20469;-72
2021/04/07 06:43:12;;;;;;;31.70;25.83;;;0.50;99.90;;;;;;5091656;28;20476;-72
2021/04/07 06:45:39;;;;;;;27.53;25.27;;;0.60;99.90;;;;;;5096308;28;20494;-72
2021/04/07 06:48:07;;;;;;;22.50;20.60;;;0.60;99.90;;;;;;5091362;28;20517;-72
2021/04/07 06:50:35;;;;;;;14.20;12.03;;;0.60;99.90;;;;;;5091942;28;20459;-73
2021/04/07 06:53:04;;;;;;;11.20;7.90;;;0.50;99.90;;;;;;5098974;28;20464;-72
2021/04/07 06:55:31;;;;;;;14.43;7.97;;;0.40;99.90;;;;;;5085155;28;20465;-74
2021/04/07 06:57:57;;;;;;;10.73;7.57;;;0.50;99.90;;;;;;5092635;28;20460;-74
2021/04/07 07:00:26;;;;;;;13.53;8.50;;;0.50;99.90;;;;;;5088001;28;20465;-75
2021/04/07 07:03:01;;;;;;;15.00;9.37;;;0.50;99.90;;;;;;5096119;28;21017;-75
2021/04/07 07:05:28;;;;;;;25.73;9.23;;;0.50;99.90;;;;;;5094328;28;20489;-74
2021/04/07 07:08:01;;;;;;;17.87;15.60;;;0.50;99.90;;;;;;5085412;28;20464;-76
2021/04/07 07:10:38;;;;;;;29.47;26.90;;;0.50;99.90;;;;;;5089242;28;20466;-74
2021/04/07 07:13:05;;;;;;;14.80;11.37;;;0.40;99.90;;;;;;5089410;28;20468;-75
2021/04/07 07:15:32;;;;;;;21.17;17.67;;;0.30;99.90;;;;;;5088763;28;20527;-73
2021/04/07 07:17:58;;;;;;;7.20;6.20;;;0.10;99.90;;;;;;5084139;28;20974;-74
2021/04/07 07:20:32;;;;;;;29.70;9.20;;;0.10;99.90;;;;;;5083693;28;20520;-74
2021/04/07 07:23:00;;;;;;;9.50;8.43;;;0.10;99.90;;;;;;5078450;28;20515;-73
2021/04/07 07:25:27;;;;;;;12.53;7.10;;;0.10;99.90;;;;;;5077648;28;21185;-73
2021/04/07 07:27:59;;;;;;;14.57;9.70;;;0.10;99.90;;;;;;5077489;28;20496;-73
2021/04/07 07:30:34;;;;;;;6.73;6.23;;;0.10;99.90;;;;;;5083293;28;20461;-73
2021/04/07 07:33:01;;;;;;;8.50;6.40;;;0.20;99.90;;;;;;5078393;28;20482;-72
2021/04/07 07:35:27;;;;;;;9.70;6.90;;;0.10;99.90;;;;;;5081440;28;21003;-71
2021/04/07 07:38:01;;;;;;;15.40;5.80;;;0.20;99.90;;;;;;5090863;28;20468;-73
2021/04/07 07:40:27;;;;;;;10.13;6.03;;;0.20;99.90;;;;;;5084131;28;20469;-73
2021/04/07 07:42:55;;;;;;;8.47;6.73;;;0.20;99.90;;;;;;5084231;28;20465;-71
2021/04/07 07:45:27;;;;;;;11.80;6.97;;;0.20;99.90;;;;;;5080579;28;20488;-70
2021/04/07 07:48:09;;;;;;;8.63;5.80;;;0.10;99.90;;;;;;5086779;28;20460;-72
2021/04/07 07:50:42;;;;;;;7.90;5.60;;;0.10;99.90;;;;;;5082803;28;20533;-72
2021/04/07 07:53:17;;;;;;;9.63;5.90;;;0.10;99.90;;;;;;5083902;28;20465;-70
2021/04/07 07:55:45;;;;;;;10.20;4.70;;;0.20;99.90;;;;;;5078887;28;20832;-72
2021/04/07 07:58:12;;;;;;;4.57;3.80;;;0.20;99.90;;;;;;5091344;28;20919;-69
2021/04/07 08:00:38;;;;;;;6.20;5.43;;;0.10;99.90;;;;;;5091388;28;20470;-70
2021/04/07 08:03:13;;;;;;;7.97;5.80;;;0.10;99.90;;;;;;5079857;28;20899;-71
2021/04/07 08:05:40;;;;;;;8.37;6.40;;;0.10;99.90;;;;;;5078230;28;20493;-69
2021/04/07 08:08:08;;;;;;;11.53;6.50;;;0.30;99.90;;;;;;5083553;28;20801;-71
2021/04/07 08:10:37;;;;;;;21.13;7.07;;;0.30;99.90;;;;;;5083305;28;20514;-72
2021/04/07 08:13:06;;;;;;;8.80;6.27;;;0.30;99.90;;;;;;5084142;28;20465;-70
2021/04/07 08:15:33;;;;;;;12.90;5.97;;;0.20;99.90;;;;;;5075041;28;21297;-69
2021/04/07 08:18:00;;;;;;;10.93;5.37;;;0.10;99.90;;;;;;5082820;28;20455;-70
2021/04/07 08:20:27;;;;;;;12.13;5.80;;;0.10;99.90;;;;;;5078487;28;20470;-68
2021/04/07 08:22:54;;;;;;;12.33;6.37;;;0.20;99.90;;;;;;5084723;28;21342;-71
2021/04/07 08:25:22;;;;;;;13.67;6.07;;;0.30;99.90;;;;;;5079168;28;20489;-68
2021/04/07 08:27:53;;;;;;;8.63;5.93;;;0.20;99.90;;;;;;5088442;28;20850;-70
2021/04/07 08:30:21;;;;;;;10.90;6.33;;;0.30;99.90;;;;;;5075760;28;20492;-71
2021/04/07 08:32:51;;;;;;;8.90;5.97;;;0.30;99.90;;;;;;5083008;28;20542;-70
2021/04/07 08:35:18;;;;;;;7.70;6.20;;;0.30;99.90;;;;;;5091979;28;20482;-68
2021/04/07 08:37:55;;;;;;;30.73;7.77;;;0.30;99.90;;;;;;5076554;28;20472;-70
2021/04/07 08:40:23;;;;;;;7.67;6.10;;;0.30;99.90;;;;;;5076486;28;20671;-67
2021/04/07 08:42:51;;;;;;;16.83;7.77;;;0.30;99.90;;;;;;5088454;28;21044;-68
2021/04/07 08:45:19;;;;;;;7.13;5.50;;;0.40;99.90;;;;;;5084099;28;20489;-71
2021/04/07 08:47:54;;;;;;;10.20;6.10;;;0.40;99.90;;;;;;5075027;28;20448;-67
2021/04/07 08:50:28;;;;;;;18.50;8.40;;;0.50;99.90;;;;;;5069929;28;20492;-66
2021/04/07 08:52:56;;;;;;;16.43;7.97;;;0.50;99.90;;;;;;5066802;28;20462;-69
2021/04/07 08:55:25;;;;;;;11.10;6.87;;;0.40;99.90;;;;;;5076544;28;20467;-70
2021/04/07 08:58:03;;;;;;;12.73;7.13;;;0.40;99.90;;;;;;5074712;28;20465;-69
2021/04/07 09:00:32;;;;;;;14.10;7.67;;;0.40;99.90;;;;;;5073555;28;20885;-70
2021/04/07 09:03:09;;;;;;;7.50;6.23;;;0.40;99.90;;;;;;5086116;28;20473;-67
2021/04/07 09:05:37;;;;;;;18.47;8.50;;;0.40;99.90;;;;;;5084055;28;20500;-70
2021/04/07 09:08:06;;;;;;;8.93;7.27;;;0.40;99.90;;;;;;5083501;28;20525;-69
2021/04/07 09:10:40;;;;;;;10.17;7.10;;;0.50;99.90;;;;;;5081169;28;20461;-67
2021/04/07 09:13:08;;;;;;;16.47;8.73;;;0.50;99.90;;;;;;5080112;28;20467;-70
2021/04/07 09:15:46;;;;;;;8.87;7.10;;;0.60;99.90;;;;;;5087920;28;20860;-67
2021/04/07 09:18:15;;;;;;;11.63;7.03;;;0.60;99.90;;;;;;5078232;28;20496;-68
2021/04/07 09:20:44;;;;;;;13.73;8.93;;;0.70;99.90;;;;;;5077991;28;20468;-71
2021/04/07 09:23:23;;;;;;;13.60;7.67;;;0.70;99.90;;;;;;5084244;28;20496;-69
2021/04/07 09:25:53;;;;;;;19.73;7.57;;;0.80;99.90;;;;;;5082126;28;20489;-72
2021/04/07 09:28:30;;;;;;;13.40;7.33;;;0.80;99.90;;;;;;5087111;28;20477;-68
2021/04/07 09:31:06;;;;;;;11.27;8.10;;;0.80;99.90;;;;;;5093500;28;20465;-68
2021/04/07 09:33:32;;;;;;;14.47;7.30;;;0.70;99.90;;;;;;5092044;28;20511;-69
2021/04/07 09:36:00;;;;;;;13.60;6.77;;;0.70;99.90;;;;;;5091751;28;20877;-71
2021/04/07 09:38:28;;;;;;;11.37;7.90;;;0.70;99.90;;;;;;5083345;28;20499;-67
2021/04/07 09:41:05;;;;;;;10.97;7.00;;;0.70;99.90;;;;;;5076816;28;20495;-69
2021/04/07 09:43:32;;;;;;;10.50;5.63;;;0.80;99.90;;;;;;5077606;28;20459;-71
2021/04/07 09:45:59;;;;;;;10.30;7.00;;;0.80;99.90;;;;;;5082308;28;20488;-67
2021/04/07 09:48:48;;;;;;;9.60;6.20;;;0.80;99.90;;;;;;5080404;28;20458;-72
2021/04/07 09:51:22;;;;;;;28.37;6.87;;;0.70;99.90;;;;;;5099590;28;20827;-70
2021/04/07 09:53:48;;;;;;;13.90;6.87;;;0.70;99.90;;;;;;5086981;28;20466;-70
2021/04/07 09:56:14;;;;;;;17.73;9.10;;;0.80;99.90;;;;;;5077538;28;21022;-70
2021/04/07 09:58:42;;;;;;;12.47;6.67;;;0.80;99.90;;;;;;5080983;28;20462;-68
2021/04/07 10:01:10;;;;;;;13.17;8.63;;;0.80;99.90;;;;;;5089732;28;20462;-69
2021/04/07 10:03:36;;;;;;;9.37;6.37;;;0.90;99.90;;;;;;5090327;28;20466;-69
2021/04/07 10:06:03;;;;;;;8.13;5.67;;;0.90;99.90;;;;;;5075009;28;20472;-70
2021/04/07 10:08:29;;;;;;;15.63;8.47;;;1.00;99.90;;;;;;5077561;28;20779;-68
2021/04/07 10:11:09;;;;;;;10.93;7.27;;;1.00;99.90;;;;;;5080328;28;20462;-69
2021/04/07 10:13:36;;;;;;;21.63;7.00;;;1.10;99.90;;;;;;5078097;28;20467;-69
2021/04/07 10:16:14;;;;;;;4.80;4.27;;;1.00;99.90;;;;;;5077877;28;20457;-69
2021/04/07 10:18:41;;;;;;;13.27;8.20;;;1.10;99.90;;;;;;5082917;28;20544;-70
2021/04/07 10:21:15;;;;;;;7.80;5.43;;;1.10;99.90;;;;;;5077394;28;20465;-69
2021/04/07 10:23:42;;;;;;;13.33;9.23;;;1.10;99.90;;;;;;5077889;28;20555;-69
2021/04/07 10:26:09;;;;;;;14.00;7.27;;;1.10;99.90;;;;;;5081611;28;20953;-69
2021/04/07 10:28:35;;;;;;;21.63;10.30;;;1.10;99.90;;;;;;5076137;28;20478;-68
2021/04/07 10:31:09;;;;;;;17.53;9.97;;;1.30;99.90;;;;;;5080070;28;20477;-69
2021/04/07 10:33:36;;;;;;;11.90;8.07;;;1.40;99.90;;;;;;5079088;28;21014;-70
2021/04/07 10:36:03;;;;;;;15.57;8.57;;;1.50;99.90;;;;;;5077843;28;20461;-68
2021/04/07 10:38:31;;;;;;;17.77;9.70;;;1.70;99.90;;;;;;5079748;28;20457;-67
2021/04/07 10:41:02;;;;;;;28.10;9.57;;;1.80;99.90;;;;;;5080318;28;20476;-67
2021/04/07 10:43:34;;;;;;;20.97;8.77;;;1.70;99.90;;;;;;5077482;28;20465;-67
2021/04/07 10:46:01;;;;;;;22.60;9.70;;;1.80;99.90;;;;;;5078870;28;21914;-67
2021/04/07 10:48:28;;;;;;;26.80;11.20;;;1.80;99.90;;;;;;5078535;28;20471;-67
2021/04/07 10:50:56;;;;;;;16.60;9.87;;;1.80;99.90;;;;;;5081485;28;20474;-68
2021/04/07 10:53:36;;;;;;;13.90;9.13;;;1.90;99.90;;;;;;5078820;28;20469;-68
2021/04/07 10:56:14;;;;;;;14.90;9.23;;;2.10;99.90;;;;;;5077992;28;20565;-69
2021/04/07 10:58:42;;;;;;;18.93;10.60;;;2.20;99.90;;;;;;5080213;28;21059;-68
2021/04/07 11:01:09;;;;;;;25.50;10.23;;;2.20;99.90;;;;;;5076603;28;21012;-69
2021/04/07 11:03:36;;;;;;;12.57;8.43;;;2.20;99.90;;;;;;5079728;28;20458;-70
2021/04/07 11:06:04;;;;;;;20.80;9.57;;;2.20;99.90;;;;;;5080812;28;20491;-71
2021/04/07 11:08:36;;;;;;;20.43;11.33;;;2.30;99.90;;;;;;5079369;28;20469;-71
2021/04/07 11:11:03;;;;;;;18.67;9.10;;;2.30;99.90;;;;;;5073149;28;20476;-71
2021/04/07 11:13:31;;;;;;;27.13;11.30;;;2.20;99.90;;;;;;5077235;28;20470;-71
2021/04/07 11:16:07;;;;;;;20.80;11.13;;;2.20;99.90;;;;;;5076866;28;20883;-71
2021/04/07 11:18:34;;;;;;;12.93;9.87;;;2.20;99.90;;;;;;5085124;28;20494;-71
2021/04/07 11:21:01;;;;;;;15.63;9.43;;;2.30;99.90;;;;;;5074794;28;20518;-71
2021/04/07 11:23:28;;;;;;;16.23;9.83;;;2.30;99.90;;;;;;5075802;28;20946;-73
2021/04/07 11:25:55;;;;;;;21.13;10.40;;;2.50;99.90;;;;;;5087735;28;20496;-73
2021/04/07 11:28:22;;;;;;;25.43;11.57;;;2.50;99.90;;;;;;5077351;28;20481;-73
2021/04/07 11:31:00;;;;;;;19.83;9.70;;;2.40;99.90;;;;;;5070360;28;20528;-72
2021/04/07 11:33:34;;;;;;;17.80;10.33;;;2.50;99.90;;;;;;5078740;28;21012;-73
2021/04/07 11:36:06;;;;;;;12.67;8.77;;;2.60;99.90;;;;;;5078040;28;20465;-74
2021/04/07 11:38:33;;;;;;;20.30;9.03;;;2.50;99.90;;;;;;5080649;28;20465;-73
2021/04/07 11:46:34;;;;;;;21.03;9.17;;;2.70;99.90;;;;;;5073692;28;21017;-73
2021/04/07 11:49:00;;;;;;;10.77;7.57;;;2.80;99.90;;;;;;5085104;28;20475;-74
2021/04/07 11:51:26;;;;;;;10.87;7.60;;;3.00;99.90;;;;;;5078410;28;21357;-74
2021/04/07 11:53:54;;;;;;;18.83;9.47;;;3.00;99.90;;;;;;5083126;28;20469;-73
2021/04/07 11:56:20;;;;;;;25.87;12.40;;;3.00;99.90;;;;;;5091098;28;20467;-75
2021/04/07 11:58:47;;;;;;;28.20;9.83;;;2.90;99.90;;;;;;5089162;28;20465;-78
2021/04/07 12:01:13;;;;;;;25.77;9.33;;;2.90;99.90;;;;;;5074334;28;20471;-75
2021/04/07 12:03:39;;;;;;;22.53;11.17;;;3.00;99.90;;;;;;5078850;28;20971;-75
2021/04/07 12:06:06;;;;;;;15.13;9.17;;;3.00;99.90;;;;;;5072198;28;20592;-76
2021/04/07 12:08:33;;;;;;;25.80;11.47;;;3.10;99.90;;;;;;5085346;28;20472;-75
2021/04/07 12:11:00;;;;;;;20.57;9.83;;;3.10;99.90;;;;;;5074533;28;20564;-75
2021/04/07 12:13:27;;;;;;;32.10;11.93;;;3.20;99.90;;;;;;5087048;28;20471;-75
2021/04/07 12:15:54;;;;;;;18.77;11.07;;;3.20;99.90;;;;;;5077091;28;20957;-75
2021/04/07 12:18:20;;;;;;;23.67;12.10;;;3.40;99.90;;;;;;5079542;28;20500;-75
2021/04/07 12:20:47;;;;;;;21.63;10.37;;;3.30;99.90;;;;;;5079744;28;21545;-75
2021/04/07 12:23:13;;;;;;;29.20;10.40;;;3.30;99.90;;;;;;5083072;28;20544;-74
2021/04/07 12:25:40;;;;;;;16.10;8.93;;;3.50;99.90;;;;;;5080704;28;20478;-76
2021/04/07 12:28:07;;;;;;;19.30;9.00;;;3.50;99.90;;;;;;5086526;28;20815;-74
2021/04/07 12:30:47;;;;;;;10.77;6.80;;;3.50;99.90;;;;;;5083000;28;20468;-74
2021/04/07 12:33:13;;;;;;;11.30;6.60;;;3.60;99.90;;;;;;5053237;28;20797;-74
2021/04/07 12:35:52;;;;;;;14.10;7.07;;;3.80;99.90;;;;;;5074430;28;21163;-74
2021/04/07 12:38:19;;;;;;;11.23;7.40;;;4.30;99.90;;;;;;5084265;28;20541;-74
2021/04/07 12:40:48;;;;;;;15.60;8.53;;;4.60;99.90;;;;;;5073594;28;20462;-75
2021/04/07 12:43:16;;;;;;;13.80;6.77;;;5.10;99.90;;;;;;5085505;28;20488;-76
2021/04/07 12:45:42;;;;;;;14.43;7.90;;;5.40;99.90;;;;;;5082617;28;20540;-75
2021/04/07 12:48:09;;;;;;;15.30;8.10;;;5.80;99.90;;;;;;5075347;28;20466;-75
2021/04/07 12:50:36;;;;;;;12.93;8.87;;;6.20;99.90;;;;;;5075903;28;20462;-74